Hovedside
METAR-TAF:

METAR-TAF

Lufthavner :

Pago Pago, USAs ytre småøyer

breddegrad: 14-20S, lengdegrad: 170-43W, høyde over havet: 3 m

Gjeldene værobservasjon

Denne rapporten ble laget for 12 minutter siden, klokken 06:50 UTC
Vind 8 kt fra Øst-sørøst
Temperatur 28°C
Luftfuktighet 84%
Trykk 1009 hPa
Sikt: 16.1 km
Få skyer i en høyde av 1800 ft
Spredte skyer i en høyde av 4000 ft
Brutte skyer i en høyde av 10000 ft

METAR: NSTU 250650Z 12008KT 10SM FEW018 SCT040 BKN100 28/25 A2981 RMK SLP097 T02810250

Tid: 20:02 (07:02 UTC)

Varsel

Denne rapporten ble laget for 1 time og 42 minutter siden, klokken 05:20 UTC
Varsel gyldig fra 25. klokken 06 UTC til 26. klokken 06 UTC
Vind 8 kt fra Øst-sørøst
Sikt: 10 km
Spredte skyer i en høyde av 1800 ft
Brutte skyer i en høyde av 4000 ft
Brutte skyer i en høyde av 10000 ft
regnbyger i nærheten

TAF: NSTU 250520Z 2506/2606 12008KT P6SM VCSH SCT018 BKN040 BKN100

Værobservasjoner og værvarsel for over 4000 flyplasser (METAR- og TAF-rapporter).

Tilgjengelige stasjoner er representert av de røde og gule prikkene på kartet.

Hold musepekeren over prikken for å se navnet på stasjonen.

Klikk så for å se værobservasjoner og -varsler.

For å forandre kartet kan du klikke på den grønne knappen med svart kryss for å zoome inn, på den grønne knappen med strek for å zoome ut, eller på de grønne pilene for å se tilstøtende kart.


METAR-TAF: